Brawley, California
Current Conditions -  °F | °C
As of 8:53 AM on Saturday 25 Oct 2014 (Local Time) from KIPL Reporting Station
Few Clouds Few Clouds  
Wind Chill: 77°   Ceiling: Unl
Heat Index: 78°   Visibility: 10mi
Dew Point: 52°   Wind: 3mph
Humidity: 42%   Direction: 210°SSW
Pressure: 29.96"   Gusts: NA
Location:  32.98°N, 115.53°W
Report Text: KIPL 251553Z AUTO 21003KT 10SM FEW100 25/11 A2996 RMK AO2 SLP145 T02500111
Loading
Personal Weather Stations






























Interactive Weather Map
Tropical Storm Tracking
New forecast layout! Learn more

10-Day Weather Forecast

Advertisements
Track Severe Weather on mobile